Time;durP1;ratioP1;P1;durP2;ratioP2;P2;SDS_P1;SDS_P2;PMS_P1;PMS_P2;Temp;Humidity;BMP_temperature;BMP_pressure;BME280_temperature;BME280_humidity;BME280_pressure;Samples;Min_cycle;Max_cycle;Signal;HPM_P1;HPM_P2
2022/07/30 00:01:58;;;;;;;7.40;4.50;;;18.80;99.90;;;;;;4996368;28;20063;-69
2022/07/30 00:04:24;;;;;;;7.53;4.40;;;17.50;99.90;;;;;;5013692;28;20041;-69
2022/07/30 00:06:49;;;;;;;10.60;4.65;;;17.40;99.90;;;;;;5013834;28;20041;-69
2022/07/30 00:09:15;;;;;;;6.53;4.97;;;17.60;99.90;;;;;;4996526;28;20085;-69
2022/07/30 00:11:41;;;;;;;9.13;5.22;;;17.60;99.90;;;;;;4996392;28;20033;-69
2022/07/30 00:14:06;;;;;;;7.30;4.97;;;18.30;99.90;;;;;;4995854;28;20179;-68
2022/07/30 00:16:32;;;;;;;9.65;4.90;;;17.50;99.90;;;;;;5013806;28;20038;-69
2022/07/30 00:18:58;;;;;;;8.45;5.00;;;18.00;99.90;;;;;;4996337;28;20037;-69
2022/07/30 00:21:23;;;;;;;12.55;5.22;;;18.50;99.90;;;;;;4996266;28;20053;-68
2022/07/30 00:23:49;;;;;;;8.85;5.47;;;17.30;99.90;;;;;;5013237;28;20042;-68
2022/07/30 00:26:14;;;;;;;9.52;5.10;;;17.80;99.90;;;;;;4995650;28;20041;-69
2022/07/30 00:28:40;;;;;;;7.32;4.80;;;18.70;99.90;;;;;;4995109;28;20068;-69
2022/07/30 00:31:06;;;;;;;5.60;4.95;;;17.50;99.90;;;;;;5013446;28;20030;-69
2022/07/30 00:33:32;;;;;;;7.38;5.40;;;17.20;99.90;;;;;;4996057;28;20464;-69
2022/07/30 00:35:57;;;;;;;12.13;4.80;;;17.20;99.90;;;;;;5013182;28;20121;-68
2022/07/30 00:38:23;;;;;;;8.35;4.88;;;17.10;99.90;;;;;;5013285;28;20045;-69
2022/07/30 00:40:48;;;;;;;9.75;5.13;;;17.60;99.90;;;;;;4995607;28;20042;-69
2022/07/30 00:43:16;;;;;;;7.45;5.00;;;17.00;99.90;;;;;;4995540;28;20041;-69
2022/07/30 00:45:43;;;;;;;8.82;4.88;;;17.50;99.90;;;;;;5012857;28;20065;-69
2022/07/30 00:48:10;;;;;;;9.35;4.93;;;16.90;99.90;;;;;;5013184;28;20053;-69
2022/07/30 00:50:36;;;;;;;9.40;5.03;;;18.00;99.90;;;;;;4995660;28;20125;-69
2022/07/30 00:53:01;;;;;;;6.55;4.72;;;17.00;99.90;;;;;;5012971;28;20121;-69
2022/07/30 00:55:27;;;;;;;7.10;5.15;;;17.50;99.90;;;;;;5012542;28;20056;-69
2022/07/30 00:57:52;;;;;;;6.45;4.95;;;17.10;99.90;;;;;;4995507;28;20049;-68
2022/07/30 01:00:18;;;;;;;8.48;4.78;;;17.40;99.90;;;;;;4995149;28;20061;-69
2022/07/30 01:02:44;;;;;;;8.52;4.95;;;16.90;99.90;;;;;;4995332;28;20034;-69
2022/07/30 01:05:10;;;;;;;9.43;4.95;;;17.00;99.90;;;;;;4978553;28;20045;-69
2022/07/30 01:07:36;;;;;;;8.02;4.50;;;17.00;99.90;;;;;;4995336;28;20184;-69
2022/07/30 01:10:03;;;;;;;6.25;5.10;;;17.40;99.90;;;;;;4995418;28;20038;-69
2022/07/30 01:12:30;;;;;;;6.03;4.50;;;16.90;99.90;;;;;;4995133;28;20514;-69
2022/07/30 01:14:57;;;;;;;9.07;4.82;;;16.80;99.90;;;;;;4994611;28;20049;-69
2022/07/30 01:17:23;;;;;;;8.82;5.03;;;16.80;99.90;;;;;;4995077;28;20061;-70
2022/07/30 01:19:51;;;;;;;7.32;4.28;;;16.70;99.90;;;;;;4995220;28;20484;-69
2022/07/30 01:22:29;;;;;;;8.65;4.20;;;16.90;99.90;;;;;;4994818;28;20037;-69
2022/07/30 01:25:09;;;;;;;8.85;4.45;;;16.80;99.90;;;;;;5011828;28;20511;-69
2022/07/30 01:28:16;;;;;;;6.20;4.80;;;16.70;99.90;;;;;;4994841;28;20045;-69
2022/07/30 01:30:43;;;;;;;8.70;5.00;;;16.70;99.90;;;;;;4913730;29;20079;-69
2022/07/30 01:33:13;;;;;;;6.93;5.10;;;16.50;99.90;;;;;;4980065;28;20145;-68
2022/07/30 01:35:40;;;;;;;6.70;4.22;;;16.40;99.90;;;;;;4994323;28;20100;-69
2022/07/30 01:38:06;;;;;;;7.30;5.20;;;17.40;99.90;;;;;;4979099;28;20112;-69
2022/07/30 01:40:33;;;;;;;6.28;4.53;;;16.40;99.90;;;;;;4994575;28;20073;-69
2022/07/30 01:43:01;;;;;;;7.20;4.70;;;16.90;99.90;;;;;;4994951;28;20049;-68
2022/07/30 01:45:29;;;;;;;12.30;5.78;;;16.50;99.90;;;;;;4994116;28;20510;-69
2022/07/30 01:48:00;;;;;;;9.45;5.22;;;16.30;99.90;;;;;;4994679;28;20403;-69
2022/07/30 01:50:28;;;;;;;9.98;5.40;;;16.10;99.90;;;;;;5012523;28;20499;-69
2022/07/30 01:52:56;;;;;;;8.40;5.35;;;16.20;99.90;;;;;;4994436;28;20045;-69
2022/07/30 01:55:25;;;;;;;8.98;4.75;;;16.50;99.90;;;;;;4994077;28;20042;-70
2022/07/30 01:57:53;;;;;;;7.80;4.72;;;16.30;99.90;;;;;;4994364;28;20045;-69
2022/07/30 02:00:19;;;;;;;5.75;5.00;;;16.20;99.90;;;;;;4994385;28;20042;-69
2022/07/30 02:02:45;;;;;;;8.18;4.47;;;15.90;99.90;;;;;;4994354;28;20060;-69
2022/07/30 02:05:11;;;;;;;6.55;5.43;;;16.10;99.90;;;;;;4994271;28;20037;-70
2022/07/30 02:07:48;;;;;;;8.35;5.72;;;16.30;99.90;;;;;;5012028;28;20037;-69
2022/07/30 02:10:22;;;;;;;8.23;5.88;;;16.10;99.90;;;;;;4994453;28;20566;-69
2022/07/30 02:12:51;;;;;;;9.02;5.93;;;16.60;99.90;;;;;;4994391;28;20120;-69
2022/07/30 02:15:19;;;;;;;10.32;7.15;;;16.40;99.90;;;;;;4994167;28;20034;-68
2022/07/30 02:17:54;;;;;;;10.32;6.32;;;17.30;99.90;;;;;;4994619;28;20045;-68
2022/07/30 02:20:22;;;;;;;7.28;6.57;;;16.20;99.90;;;;;;4994510;28;20526;-69
2022/07/30 02:22:49;;;;;;;9.23;6.80;;;16.20;99.90;;;;;;4994245;28;20514;-69
2022/07/30 02:25:18;;;;;;;11.30;7.18;;;16.20;99.90;;;;;;4994395;28;20038;-69
2022/07/30 02:27:49;;;;;;;12.98;8.27;;;16.90;99.90;;;;;;4994607;28;20046;-69
2022/07/30 02:30:15;;;;;;;8.85;7.05;;;16.20;99.90;;;;;;4995529;28;20049;-69
2022/07/30 02:32:43;;;;;;;7.80;6.30;;;16.20;99.90;;;;;;5012142;28;20038;-69
2022/07/30 02:35:19;;;;;;;13.13;7.10;;;16.70;99.90;;;;;;4993937;28;20070;-69
2022/07/30 02:37:47;;;;;;;10.68;5.55;;;15.80;99.90;;;;;;5011551;28;20056;-68
2022/07/30 02:40:16;;;;;;;8.18;6.43;;;15.80;99.90;;;;;;4995402;28;20042;-69
2022/07/30 02:42:45;;;;;;;8.70;5.88;;;15.90;99.90;;;;;;5013141;28;20034;-68
2022/07/30 02:45:11;;;;;;;6.40;5.20;;;16.10;99.90;;;;;;5013200;28;20041;-69
2022/07/30 02:47:39;;;;;;;7.82;5.97;;;15.70;99.90;;;;;;4995223;28;20073;-68
2022/07/30 02:50:06;;;;;;;7.75;5.95;;;15.80;99.90;;;;;;4993929;28;20042;-68
2022/07/30 02:52:33;;;;;;;5.97;5.22;;;15.80;99.90;;;;;;4997426;28;20033;-69
2022/07/30 02:55:01;;;;;;;6.95;6.00;;;15.80;99.90;;;;;;4997178;28;20137;-70
2022/07/30 02:57:27;;;;;;;7.20;5.60;;;16.10;99.90;;;;;;4997454;28;20052;-69
2022/07/30 02:59:54;;;;;;;7.70;4.80;;;15.90;99.90;;;;;;4997726;28;20377;-69
2022/07/30 03:02:21;;;;;;;5.82;5.22;;;15.90;99.90;;;;;;4997609;28;20049;-69
2022/07/30 03:04:47;;;;;;;6.50;5.28;;;16.30;99.90;;;;;;5014531;28;20412;-69
2022/07/30 03:07:14;;;;;;;6.65;5.97;;;15.90;99.90;;;;;;4997596;28;20045;-68
2022/07/30 03:09:42;;;;;;;5.70;5.05;;;15.80;99.90;;;;;;5015095;28;20034;-69
2022/07/30 03:12:11;;;;;;;5.35;4.85;;;15.80;99.90;;;;;;5014881;28;20049;-68
2022/07/30 03:14:37;;;;;;;5.78;5.22;;;15.90;99.90;;;;;;5014575;28;20088;-69
2022/07/30 03:17:04;;;;;;;5.93;5.22;;;15.60;99.90;;;;;;4981110;28;20407;-68
2022/07/30 03:19:35;;;;;;;6.32;5.65;;;15.80;99.90;;;;;;5014655;28;20045;-69
2022/07/30 03:22:03;;;;;;;9.93;5.75;;;16.80;99.90;;;;;;4997410;28;20049;-68
2022/07/30 03:24:29;;;;;;;7.15;5.63;;;15.70;99.90;;;;;;4996701;28;20037;-68
2022/07/30 03:26:56;;;;;;;9.10;5.95;;;16.00;99.90;;;;;;5014582;28;20071;-68
2022/07/30 03:29:23;;;;;;;8.25;6.47;;;15.70;99.90;;;;;;4996919;28;20042;-69
2022/07/30 03:31:50;;;;;;;8.20;6.85;;;15.50;99.90;;;;;;5014393;28;20037;-68
2022/07/30 03:34:17;;;;;;;8.70;5.72;;;15.60;99.90;;;;;;4996554;28;20113;-69
2022/07/30 03:36:43;;;;;;;6.68;6.00;;;15.50;99.90;;;;;;5014506;28;20053;-69
2022/07/30 03:39:09;;;;;;;6.70;5.95;;;15.40;99.90;;;;;;5014362;28;20431;-69
2022/07/30 03:41:36;;;;;;;6.53;5.60;;;15.30;99.90;;;;;;4996889;28;20046;-69
2022/07/30 03:44:02;;;;;;;9.18;5.22;;;15.30;99.90;;;;;;5013899;28;20084;-69
2022/07/30 03:46:29;;;;;;;6.22;5.60;;;15.40;99.90;;;;;;4980302;28;20034;-69
2022/07/30 03:48:56;;;;;;;7.88;5.38;;;15.60;99.90;;;;;;4996685;28;20056;-69
2022/07/30 03:51:22;;;;;;;8.43;5.45;;;14.40;99.90;;;;;;5014356;28;20072;-68
2022/07/30 03:53:50;;;;;;;5.18;4.60;;;15.40;99.90;;;;;;4996637;28;20456;-69
2022/07/30 03:56:16;;;;;;;7.45;5.53;;;15.30;99.90;;;;;;5014143;28;20084;-69
2022/07/30 03:58:42;;;;;;;6.28;5.53;;;15.50;99.90;;;;;;5014144;28;20057;-69
2022/07/30 04:01:08;;;;;;;7.28;6.10;;;15.50;99.90;;;;;;4996509;28;20042;-68
2022/07/30 04:03:33;;;;;;;5.70;4.88;;;15.50;99.90;;;;;;4996461;28;20046;-68
2022/07/30 04:05:59;;;;;;;5.93;5.05;;;15.20;99.90;;;;;;4979850;28;20045;-69
2022/07/30 04:08:27;;;;;;;10.13;6.38;;;15.40;99.90;;;;;;4996488;28;20052;-69
2022/07/30 04:10:53;;;;;;;10.60;5.45;;;15.40;99.90;;;;;;5013758;28;20085;-69
2022/07/30 04:13:18;;;;;;;6.32;5.40;;;15.50;99.90;;;;;;4980202;28;20069;-69
2022/07/30 04:16:01;;;;;;;7.15;5.57;;;15.30;99.90;;;;;;5013166;28;20041;-69
2022/07/30 04:18:32;;;;;;;10.82;5.53;;;15.40;99.90;;;;;;4996283;28;20116;-69
2022/07/30 04:21:00;;;;;;;8.68;6.25;;;15.50;99.90;;;;;;5013596;28;20519;-69
2022/07/30 04:23:26;;;;;;;7.00;5.47;;;15.40;99.90;;;;;;4995782;28;20044;-69
2022/07/30 04:25:51;;;;;;;8.95;5.80;;;15.30;99.90;;;;;;5071024;22;20053;-73
2022/07/30 04:28:18;;;;;;;6.97;5.60;;;15.40;99.90;;;;;;5035101;28;20044;-73
2022/07/30 04:30:45;;;;;;;7.40;5.97;;;15.40;99.90;;;;;;5035341;28;20037;-73
2022/07/30 04:33:10;;;;;;;6.70;5.43;;;15.50;99.90;;;;;;5052783;28;20061;-73
2022/07/30 04:35:37;;;;;;;6.07;5.47;;;15.50;99.90;;;;;;5034750;28;20459;-73
2022/07/30 04:38:03;;;;;;;7.20;5.38;;;15.30;99.90;;;;;;5052749;28;20047;-73
2022/07/30 04:40:30;;;;;;;8.32;5.10;;;15.40;99.90;;;;;;5052972;28;20068;-73
2022/07/30 04:42:56;;;;;;;5.82;5.22;;;15.30;99.90;;;;;;5034752;28;20041;-75
2022/07/30 04:45:21;;;;;;;6.45;5.30;;;15.30;99.90;;;;;;5052350;28;20102;-74
2022/07/30 04:47:47;;;;;;;6.05;4.82;;;15.40;99.90;;;;;;5052693;28;20045;-73
2022/07/30 04:50:15;;;;;;;7.70;5.68;;;15.50;99.90;;;;;;5034860;28;20466;-73
2022/07/30 04:52:42;;;;;;;6.22;5.40;;;15.50;99.90;;;;;;5018343;28;20112;-73
2022/07/30 04:55:09;;;;;;;12.02;6.60;;;15.60;99.90;;;;;;5034347;28;20045;-73
2022/07/30 04:57:37;;;;;;;9.32;6.25;;;15.60;99.90;;;;;;5034632;28;20060;-73
2022/07/30 05:00:04;;;;;;;8.90;6.55;;;15.70;99.90;;;;;;5052404;28;20540;-72
2022/07/30 05:02:33;;;;;;;33.20;8.90;;;15.60;99.90;;;;;;5017921;28;20040;-73
2022/07/30 05:05:01;;;;;;;13.52;6.72;;;15.60;99.90;;;;;;5017337;28;20120;-73
2022/07/30 05:07:28;;;;;;;16.63;7.45;;;15.70;99.90;;;;;;5052302;28;20073;-75
2022/07/30 05:09:54;;;;;;;9.95;6.82;;;15.70;99.90;;;;;;5052063;28;20049;-73
2022/07/30 05:12:20;;;;;;;15.48;7.70;;;15.90;99.90;;;;;;5018248;28;20128;-73
2022/07/30 05:14:46;;;;;;;54.78;7.32;;;15.80;99.90;;;;;;5033518;28;20083;-73
2022/07/30 05:17:11;;;;;;;17.58;7.18;;;15.90;99.90;;;;;;5052214;28;20037;-73
2022/07/30 05:19:37;;;;;;;23.52;8.32;;;15.90;99.90;;;;;;5050816;28;20067;-73
2022/07/30 05:22:03;;;;;;;32.00;7.75;;;16.00;99.90;;;;;;5034078;28;20351;-73
2022/07/30 05:24:28;;;;;;;22.08;7.10;;;15.80;99.90;;;;;;5033544;28;20120;-73
2022/07/30 05:26:54;;;;;;;8.85;6.18;;;16.30;99.90;;;;;;5052028;28;20116;-75
2022/07/30 05:29:19;;;;;;;36.42;7.25;;;16.10;99.90;;;;;;5034186;28;20045;-72
2022/07/30 05:31:45;;;;;;;26.70;6.70;;;16.10;99.90;;;;;;5034247;28;20068;-72
2022/07/30 05:34:11;;;;;;;35.63;8.10;;;16.20;99.90;;;;;;5033406;28;20037;-73
2022/07/30 05:36:36;;;;;;;17.27;7.68;;;16.40;99.90;;;;;;5034063;28;20083;-73
2022/07/30 05:39:02;;;;;;;14.27;7.53;;;16.30;99.90;;;;;;5033732;28;20048;-73
2022/07/30 05:41:28;;;;;;;12.73;7.85;;;16.70;99.90;;;;;;5034014;28;20058;-72
2022/07/30 05:43:53;;;;;;;10.35;7.70;;;16.60;99.90;;;;;;5033661;28;20383;-72
2022/07/30 05:46:19;;;;;;;11.48;8.05;;;16.90;99.90;;;;;;5033566;28;20078;-73
2022/07/30 05:48:45;;;;;;;9.70;6.90;;;16.90;99.90;;;;;;5051530;28;20044;-73
2022/07/30 05:51:10;;;;;;;12.55;8.02;;;17.30;99.90;;;;;;5033980;28;20032;-73
2022/07/30 05:53:36;;;;;;;17.40;7.47;;;17.10;99.90;;;;;;5051533;28;20029;-74
2022/07/30 05:56:01;;;;;;;15.93;6.97;;;17.60;99.90;;;;;;5051347;28;20072;-74
2022/07/30 05:58:28;;;;;;;10.80;7.07;;;17.30;99.90;;;;;;5033992;28;20043;-73
2022/07/30 06:00:54;;;;;;;19.02;7.32;;;17.40;99.90;;;;;;5051683;28;20033;-73
2022/07/30 06:03:19;;;;;;;10.05;6.20;;;17.60;99.90;;;;;;5033620;28;20060;-74
2022/07/30 06:05:45;;;;;;;10.57;5.82;;;18.10;99.90;;;;;;5049955;28;20049;-73
2022/07/30 06:08:11;;;;;;;16.63;7.28;;;17.70;99.90;;;;;;5033349;28;20048;-72
2022/07/30 06:10:36;;;;;;;9.82;5.90;;;18.10;99.90;;;;;;5033329;28;20037;-73
2022/07/30 06:13:02;;;;;;;15.55;6.53;;;17.90;99.90;;;;;;5033559;28;20091;-73
2022/07/30 06:15:27;;;;;;;11.10;6.38;;;18.30;99.90;;;;;;5051033;28;20037;-73
2022/07/30 06:17:53;;;;;;;8.85;5.47;;;18.00;99.90;;;;;;5051189;28;20498;-73
2022/07/30 06:20:19;;;;;;;14.70;6.20;;;17.90;99.90;;;;;;5051152;28;20072;-73
2022/07/30 06:22:45;;;;;;;13.02;6.63;;;18.00;99.90;;;;;;5016698;28;20591;-73
2022/07/30 06:25:11;;;;;;;11.10;5.55;;;18.20;99.90;;;;;;5032955;28;20041;-73
2022/07/30 06:27:36;;;;;;;17.85;6.40;;;18.40;99.90;;;;;;5041286;28;20041;-73
2022/07/30 06:30:07;;;;;;;16.67;7.03;;;18.20;99.90;;;;;;5038098;28;20090;-73
2022/07/30 06:32:33;;;;;;;13.75;5.97;;;18.30;99.90;;;;;;5046545;28;20029;-73
2022/07/30 06:34:59;;;;;;;12.38;6.53;;;18.30;99.90;;;;;;5043233;28;20163;-73
2022/07/30 06:37:25;;;;;;;15.82;7.35;;;19.00;99.90;;;;;;5035831;28;20123;-72
2022/07/30 06:39:50;;;;;;;15.55;5.82;;;18.60;99.90;;;;;;5036425;28;20411;-73
2022/07/30 06:42:16;;;;;;;11.60;6.40;;;18.60;99.90;;;;;;5019602;28;20044;-74
2022/07/30 06:44:42;;;;;;;9.50;6.10;;;18.80;99.90;;;;;;5036772;28;20056;-74
2022/07/30 06:47:08;;;;;;;15.00;5.88;;;19.00;99.90;;;;;;5053666;28;20040;-73
2022/07/30 06:49:34;;;;;;;14.38;6.35;;;18.90;99.90;;;;;;5036840;28;20122;-73
2022/07/30 06:52:00;;;;;;;11.30;6.18;;;19.10;99.90;;;;;;5036534;28;20051;-72
2022/07/30 06:54:26;;;;;;;17.75;6.85;;;19.40;99.90;;;;;;5035269;28;20098;-72
2022/07/30 06:56:51;;;;;;;11.27;6.60;;;19.00;99.90;;;;;;5036512;28;20480;-73
2022/07/30 06:59:17;;;;;;;14.90;7.22;;;19.10;99.90;;;;;;5036139;28;20051;-72
2022/07/30 07:01:43;;;;;;;12.45;6.85;;;19.20;99.90;;;;;;5036450;28;20044;-73
2022/07/30 07:04:08;;;;;;;13.30;6.53;;;19.30;99.90;;;;;;5053549;28;20599;-73
2022/07/30 07:06:34;;;;;;;13.23;6.40;;;19.30;99.90;;;;;;5019319;28;20490;-73
2022/07/30 07:09:00;;;;;;;12.20;6.05;;;19.30;99.90;;;;;;5036320;28;20128;-73
2022/07/30 07:11:25;;;;;;;18.85;6.88;;;19.40;99.90;;;;;;5035673;28;20395;-73
2022/07/30 07:13:51;;;;;;;11.35;5.70;;;19.30;99.90;;;;;;5036185;28;20552;-75
2022/07/30 07:16:20;;;;;;;13.88;7.40;;;19.50;99.90;;;;;;5034524;28;20037;-73
2022/07/30 07:18:47;;;;;;;7.88;5.38;;;19.30;99.90;;;;;;5053071;28;20045;-74
2022/07/30 07:21:15;;;;;;;13.30;5.60;;;19.50;99.90;;;;;;5027115;28;20033;-73
2022/07/30 07:23:41;;;;;;;11.63;6.00;;;19.40;99.90;;;;;;5053302;28;20040;-72
2022/07/30 07:26:07;;;;;;;14.77;6.43;;;19.20;99.90;;;;;;5034788;28;20040;-73
2022/07/30 07:28:32;;;;;;;10.30;5.63;;;19.40;99.90;;;;;;5036004;28;20092;-73
2022/07/30 07:30:58;;;;;;;10.15;5.45;;;19.70;99.90;;;;;;5053105;28;20170;-73
2022/07/30 07:33:24;;;;;;;11.05;5.35;;;20.10;99.90;;;;;;5035407;28;20072;-72
2022/07/30 07:35:50;;;;;;;10.40;5.13;;;20.20;99.90;;;;;;5034653;28;20165;-73
2022/07/30 07:38:17;;;;;;;14.02;6.13;;;20.20;99.90;;;;;;5034951;28;20048;-72
2022/07/30 07:40:42;;;;;;;13.35;4.80;;;20.50;99.90;;;;;;5051151;28;20172;-72
2022/07/30 07:43:08;;;;;;;8.20;4.78;;;20.50;99.90;;;;;;5052692;28;20494;-72
2022/07/30 07:45:34;;;;;;;14.00;5.10;;;20.70;99.90;;;;;;5014681;28;20494;-70
2022/07/30 07:48:03;;;;;;;11.48;5.95;;;;;;;;;;5037541;28;20063;-73
2022/07/30 07:50:29;;;;;;;11.55;5.40;;;20.00;99.90;;;;;;5016291;28;20331;-72
2022/07/30 07:52:54;;;;;;;9.98;4.40;;;19.80;99.90;;;;;;5016751;28;20598;-73
2022/07/30 07:55:20;;;;;;;13.82;6.30;;;20.50;99.90;;;;;;5046609;28;20399;-72
2022/07/30 07:57:45;;;;;;;11.73;5.07;;;20.30;99.90;;;;;;5031633;28;20033;-73
2022/07/30 08:00:19;;;;;;;11.20;4.60;;;20.40;99.90;;;;;;5048437;28;20044;-73
2022/07/30 08:02:46;;;;;;;7.80;4.50;;;20.40;99.90;;;;;;5033891;28;20067;-74
2022/07/30 08:05:11;;;;;;;8.35;3.92;;;20.40;99.90;;;;;;5060773;28;20060;-75
2022/07/30 08:07:38;;;;;;;13.60;3.72;;;20.70;99.90;;;;;;5028315;28;20041;-72
2022/07/30 08:10:05;;;;;;;8.55;3.58;;;20.80;99.90;;;;;;5043332;28;20409;-72
2022/07/30 08:12:31;;;;;;;8.93;3.95;;;20.60;99.90;;;;;;5034657;28;20076;-75
2022/07/30 08:14:57;;;;;;;7.60;3.50;;;20.60;99.90;;;;;;5048468;28;20069;-73
2022/07/30 08:17:22;;;;;;;9.43;4.32;;;20.90;99.90;;;;;;5048674;28;20036;-72
2022/07/30 08:19:48;;;;;;;7.00;3.30;;;21.10;99.90;;;;;;5031323;28;20039;-73
2022/07/30 08:22:13;;;;;;;8.20;4.20;;;21.40;99.90;;;;;;5030129;28;20029;-72
2022/07/30 08:24:39;;;;;;;7.50;3.03;;;21.70;99.90;;;;;;5048721;28;20041;-74
2022/07/30 08:27:05;;;;;;;9.27;3.33;;;20.90;99.90;;;;;;5014326;28;20090;-73
2022/07/30 08:29:30;;;;;;;8.13;3.72;;;20.30;99.90;;;;;;5030408;28;20041;-74
2022/07/30 08:31:56;;;;;;;6.80;3.13;;;20.80;99.90;;;;;;5049256;28;20033;-72
2022/07/30 08:34:22;;;;;;;8.05;2.90;;;20.80;99.90;;;;;;5031756;28;20405;-72
2022/07/30 08:36:47;;;;;;;10.15;3.40;;;21.30;99.90;;;;;;5023371;28;20059;-72
2022/07/30 08:39:13;;;;;;;4.95;3.25;;;21.50;99.90;;;;;;5013284;28;20045;-72
2022/07/30 08:41:40;;;;;;;8.40;4.28;;;20.90;99.90;;;;;;5032273;28;20073;-72
2022/07/30 08:44:09;;;;;;;4.43;3.38;;;21.40;99.90;;;;;;5032196;28;20120;-72
2022/07/30 08:46:38;;;;;;;8.00;3.10;;;21.30;99.90;;;;;;5032457;28;20059;-72
2022/07/30 08:49:04;;;;;;;6.25;2.95;;;21.30;99.90;;;;;;5032187;28;20046;-72
2022/07/30 08:51:29;;;;;;;16.05;4.05;;;21.30;99.90;;;;;;5032998;28;20037;-72
2022/07/30 08:53:56;;;;;;;8.85;2.85;;;21.60;99.90;;;;;;5014630;28;20131;-72
2022/07/30 08:56:22;;;;;;;9.48;3.90;;;21.60;99.90;;;;;;5014994;28;20045;-72
2022/07/30 08:58:48;;;;;;;6.43;3.25;;;21.40;99.90;;;;;;5022388;28;20052;-72
2022/07/30 09:01:14;;;;;;;5.82;3.33;;;21.70;99.90;;;;;;5068754;28;20036;-72
2022/07/30 09:03:40;;;;;;;8.10;3.17;;;21.90;99.90;;;;;;5057864;28;20033;-71
2022/07/30 09:06:06;;;;;;;6.13;3.05;;;21.90;99.90;;;;;;5051306;28;20029;-74
2022/07/30 09:08:33;;;;;;;8.60;3.15;;;22.70;99.90;;;;;;5017470;28;20080;-73
2022/07/30 09:10:59;;;;;;;8.68;4.20;;;21.90;99.90;;;;;;5051434;28;20276;-73
2022/07/30 09:13:31;;;;;;;5.90;2.72;;;22.00;99.90;;;;;;5051921;28;20033;-72
2022/07/30 09:15:57;;;;;;;8.87;2.43;;;22.30;99.90;;;;;;5033716;28;20169;-72
2022/07/30 09:18:35;;;;;;;4.80;2.50;;;22.00;99.90;;;;;;5033816;28;20051;-72
2022/07/30 09:21:24;;;;;;;8.75;3.28;;;22.50;99.90;;;;;;5017438;28;20071;-72
2022/07/30 09:24:01;;;;;;;7.07;2.80;;;22.40;99.90;;;;;;5032526;28;20115;-75
2022/07/30 09:26:28;;;;;;;8.25;2.92;;;22.60;99.90;;;;;;5044368;28;20037;-72
2022/07/30 09:28:54;;;;;;;6.53;3.03;;;23.00;99.90;;;;;;5021958;28;20044;-72
2022/07/30 09:31:21;;;;;;;9.63;3.00;;;23.40;99.90;;;;;;5040094;28;20033;-72
2022/07/30 09:33:47;;;;;;;6.35;2.90;;;23.80;99.90;;;;;;5043034;28;20037;-73
2022/07/30 09:36:15;;;;;;;10.80;3.10;;;22.70;99.90;;;;;;5038789;28;20060;-72
2022/07/30 09:38:42;;;;;;;7.57;2.60;;;22.70;99.90;;;;;;5012582;28;20529;-72
2022/07/30 09:41:09;;;;;;;8.32;2.67;;;23.50;99.90;;;;;;5030350;28;20124;-72
2022/07/30 09:43:46;;;;;;;8.18;2.53;;;22.80;99.90;;;;;;5016258;28;20044;-71
2022/07/30 09:46:11;;;;;;;7.45;2.38;;;22.30;99.90;;;;;;5051416;28;20094;-74
2022/07/30 09:48:37;;;;;;;7.05;2.47;;;22.90;99.90;;;;;;5051300;28;20127;-72
2022/07/30 09:51:03;;;;;;;9.27;2.90;;;22.40;99.90;;;;;;5032666;28;20032;-72
2022/07/30 09:53:30;;;;;;;6.53;2.65;;;22.60;99.90;;;;;;5033374;28;20445;-72
2022/07/30 09:55:56;;;;;;;5.55;2.72;;;22.70;99.90;;;;;;5050919;28;20086;-72
2022/07/30 09:58:22;;;;;;;6.30;2.78;;;22.40;99.90;;;;;;5033336;28;20060;-74
2022/07/30 10:00:55;;;;;;;5.38;1.90;;;22.90;99.90;;;;;;5033201;28;20315;-72
2022/07/30 10:03:24;;;;;;;7.70;2.67;;;22.70;99.90;;;;;;5051380;28;20356;-72
2022/07/30 10:05:50;;;;;;;6.65;2.92;;;23.30;99.90;;;;;;5050978;28;20518;-73
2022/07/30 10:08:15;;;;;;;4.88;2.83;;;23.10;99.90;;;;;;5033454;28;20133;-71
2022/07/30 10:10:42;;;;;;;7.15;3.10;;;23.20;99.90;;;;;;5051276;28;20039;-74
2022/07/30 10:13:10;;;;;;;6.38;2.35;;;22.50;99.90;;;;;;5066869;28;20047;-73
2022/07/30 10:15:36;;;;;;;4.82;2.63;;;22.60;99.90;;;;;;5064060;28;20116;-71
2022/07/30 10:18:04;;;;;;;5.35;2.90;;;23.20;99.90;;;;;;5033019;28;20482;-74
2022/07/30 10:20:30;;;;;;;6.63;2.33;;;22.70;99.90;;;;;;5015106;28;20067;-73
2022/07/30 10:22:56;;;;;;;5.10;2.72;;;22.80;99.90;;;;;;5033021;28;20041;-72
2022/07/30 10:25:24;;;;;;;11.25;2.70;;;22.30;99.90;;;;;;5044294;22;20096;-72
2022/07/30 10:27:50;;;;;;;7.38;3.45;;;22.90;99.90;;;;;;5011790;28;20496;-70
2022/07/30 10:30:16;;;;;;;7.38;3.45;;;23.40;99.90;;;;;;5011747;28;20511;-70
2022/07/30 10:32:43;;;;;;;6.38;3.28;;;22.00;99.90;;;;;;5011744;28;20038;-70
2022/07/30 10:35:10;;;;;;;6.05;2.92;;;22.60;99.90;;;;;;5010166;28;20046;-70
2022/07/30 10:37:41;;;;;;;10.30;2.72;;;22.90;99.90;;;;;;5011904;28;20042;-71
2022/07/30 10:40:20;;;;;;;7.43;3.28;;;22.60;99.90;;;;;;5011871;28;20065;-71
2022/07/30 10:43:04;;;;;;;4.85;2.83;;;22.90;99.90;;;;;;5010683;28;20061;-71
2022/07/30 10:45:46;;;;;;;5.55;2.85;;;22.60;99.90;;;;;;5011102;28;20590;-70
2022/07/30 10:48:12;;;;;;;8.75;2.78;;;23.10;99.90;;;;;;5011940;28;20050;-71
2022/07/30 10:50:59;;;;;;;4.95;2.55;;;23.00;99.90;;;;;;4994131;28;20038;-71
2022/07/30 10:53:51;;;;;;;8.18;3.30;;;23.40;99.90;;;;;;5010423;28;20041;-71
2022/07/30 10:56:21;;;;;;;6.65;2.60;;;23.00;99.90;;;;;;5007468;28;20092;-71
2022/07/30 10:59:16;;;;;;;7.57;2.53;;;22.70;99.90;;;;;;4994156;28;20042;-70
2022/07/30 11:01:48;;;;;;;5.80;2.40;;;22.90;99.90;;;;;;4981447;28;20057;-71
2022/07/30 11:04:18;;;;;;;12.18;3.75;;;23.10;99.90;;;;;;4993566;28;20049;-70
2022/07/30 11:06:44;;;;;;;5.57;2.60;;;23.20;99.90;;;;;;5010179;28;20406;-71
2022/07/30 11:09:51;;;;;;;6.97;2.40;;;23.50;99.90;;;;;;5010551;28;20038;-71
2022/07/30 11:12:42;;;;;;;6.15;1.92;;;23.40;99.90;;;;;;5003730;28;20054;-71
2022/07/30 11:15:09;;;;;;;5.47;2.28;;;23.20;99.90;;;;;;5014729;28;20115;-71
2022/07/30 11:17:58;;;;;;;5.65;2.28;;;23.00;99.90;;;;;;4994807;28;20034;-70
2022/07/30 11:20:25;;;;;;;5.70;2.00;;;23.30;99.90;;;;;;4997173;28;20484;-70
2022/07/30 11:22:51;;;;;;;4.45;2.00;;;23.50;99.90;;;;;;5013548;28;20042;-72
2022/07/30 11:25:26;;;;;;;5.32;2.42;;;23.50;99.90;;;;;;4996410;28;20045;-71
2022/07/30 11:27:52;;;;;;;7.32;2.40;;;23.90;99.90;;;;;;5014742;28;20124;-71
2022/07/30 11:30:21;;;;;;;6.15;2.45;;;23.70;99.90;;;;;;5013942;28;20069;-71
2022/07/30 11:32:51;;;;;;;5.20;2.30;;;23.10;99.90;;;;;;5013487;28;20048;-72
2022/07/30 11:35:23;;;;;;;5.40;2.40;;;23.50;99.90;;;;;;5013094;28;20040;-71
2022/07/30 11:38:08;;;;;;;8.05;2.55;;;24.20;99.90;;;;;;5013563;28;20125;-71
2022/07/30 11:40:40;;;;;;;6.85;2.50;;;23.70;99.90;;;;;;5013208;28;20108;-71
2022/07/30 11:43:23;;;;;;;4.57;2.25;;;23.60;99.90;;;;;;5014498;28;20496;-72
2022/07/30 11:46:06;;;;;;;9.35;2.30;;;23.30;99.90;;;;;;5014099;28;20033;-71
2022/07/30 11:48:32;;;;;;;;;;;23.80;99.90;;;;;;5013536;28;20048;-72
2022/07/30 11:50:58;;;;;;;6.07;3.08;;;24.00;99.90;;;;;;5013084;28;19921;-70
2022/07/30 11:53:24;;;;;;;9.23;2.60;;;23.70;99.90;;;;;;5014068;28;20038;-71
2022/07/30 11:55:58;;;;;;;10.35;2.13;;;23.80;99.90;;;;;;5012763;28;20484;-69
2022/07/30 11:58:30;;;;;;;7.07;2.67;;;23.60;99.90;;;;;;5012857;28;20073;-71
2022/07/30 12:01:05;;;;;;;9.63;2.35;;;24.00;99.90;;;;;;5012971;28;20038;-70
2022/07/30 12:03:31;;;;;;;4.88;1.70;;;24.20;99.30;;;;;;5013927;28;20049;-72
2022/07/30 12:06:05;;;;;;;6.72;1.98;;;24.10;99.10;;;;;;5012397;28;20042;-71
2022/07/30 12:08:41;;;;;;;5.57;1.60;;;24.20;99.00;;;;;;5014221;28;20076;-71
2022/07/30 12:11:06;;;;;;;4.65;1.50;;;25.00;98.50;;;;;;5014057;28;20034;-71
2022/07/30 12:13:32;;;;;;;3.88;1.40;;;23.90;97.50;;;;;;5012481;28;20042;-71
2022/07/30 12:15:58;;;;;;;5.88;1.67;;;23.90;97.10;;;;;;4996103;28;20125;-71
2022/07/30 12:18:28;;;;;;;7.38;1.60;;;24.00;97.60;;;;;;5013835;28;20048;-71
2022/07/30 12:21:00;;;;;;;3.15;1.60;;;24.20;98.30;;;;;;5013802;28;20096;-71
2022/07/30 12:23:26;;;;;;;6.57;1.70;;;25.40;98.60;;;;;;4994893;28;20411;-71
2022/07/30 12:25:52;;;;;;;4.53;1.63;;;25.20;98.00;;;;;;5011783;28;20109;-71
2022/07/30 12:28:20;;;;;;;3.88;1.50;;;24.30;98.20;;;;;;5013449;28;20042;-71
2022/07/30 12:30:46;;;;;;;4.00;1.73;;;24.30;98.00;;;;;;5012513;28;20042;-71
2022/07/30 12:33:12;;;;;;;3.47;1.60;;;24.10;98.10;;;;;;5013605;28;20030;-71
2022/07/30 12:35:48;;;;;;;2.08;1.38;;;24.30;98.00;;;;;;5011692;28;20129;-71
2022/07/30 12:38:15;;;;;;;3.72;1.90;;;24.10;96.90;;;;;;5013496;28;20508;-71
2022/07/30 12:40:56;;;;;;;5.63;1.70;;;24.10;97.00;;;;;;4995719;28;20128;-71
2022/07/30 12:43:48;;;;;;;4.78;1.85;;;24.10;97.40;;;;;;5011959;28;20614;-71
2022/07/30 12:46:22;;;;;;;2.15;1.35;;;24.20;97.30;;;;;;5011704;28;20069;-71
2022/07/30 12:48:55;;;;;;;3.75;1.40;;;23.90;97.20;;;;;;5011997;28;20038;-71
2022/07/30 12:51:28;;;;;;;3.70;1.30;;;23.90;97.60;;;;;;5013512;28;20034;-70